createdAt,value
2023-03-21T00:00:48.115Z,101618.00
2023-03-21T00:03:15.932Z,101607.00
2023-03-21T00:05:45.710Z,101602.00
2023-03-21T00:08:12.487Z,101595.00
2023-03-21T00:10:43.464Z,101594.00
2023-03-21T00:13:13.283Z,101593.00
2023-03-21T00:18:41.728Z,101582.00
2023-03-21T00:24:00.085Z,101575.00
2023-03-21T00:26:26.958Z,101577.00
2023-03-21T00:28:53.599Z,101570.00
2023-03-21T00:31:20.325Z,101570.00
2023-03-21T00:33:46.945Z,101568.00
2023-03-21T00:36:13.935Z,101563.00
2023-03-21T00:38:40.599Z,101565.00
2023-03-21T00:41:20.897Z,101563.00
2023-03-21T00:43:55.543Z,101558.00
2023-03-21T00:46:25.112Z,101554.00
2023-03-21T00:48:52.261Z,101549.00
2023-03-21T00:51:26.558Z,101550.00
2023-03-21T00:53:57.792Z,101549.00
2023-03-21T00:56:24.573Z,101533.00
2023-03-21T00:58:51.317Z,101533.00
2023-03-21T01:01:18.436Z,101523.00
2023-03-21T01:03:48.163Z,101522.00
2023-03-21T01:06:19.276Z,101512.00
2023-03-21T01:08:53.171Z,101517.00
2023-03-21T01:11:26.002Z,101514.00
2023-03-21T01:14:04.121Z,101513.00
2023-03-21T01:16:37.947Z,101515.00
2023-03-21T01:19:09.351Z,101498.00
2023-03-21T01:21:41.403Z,101504.00
2023-03-21T01:24:08.433Z,101501.00
2023-03-21T01:26:37.416Z,101492.00
2023-03-21T01:29:05.592Z,101490.00
2023-03-21T01:31:32.402Z,101494.00
2023-03-21T01:33:59.092Z,101483.00
2023-03-21T01:36:27.109Z,101480.00
2023-03-21T01:38:54.038Z,101479.00
2023-03-21T01:41:36.609Z,101468.00
2023-03-21T01:44:07.839Z,101465.00
2023-03-21T01:46:49.623Z,101464.00
2023-03-21T01:49:27.648Z,101465.00
2023-03-21T01:52:11.482Z,101462.00
2023-03-21T01:54:41.165Z,101466.00
2023-03-21T01:57:25.817Z,101458.00
2023-03-21T01:59:54.808Z,101457.00
2023-03-21T02:02:26.551Z,101454.00
2023-03-21T02:04:56.230Z,101458.00
2023-03-21T02:07:29.371Z,101451.00
2023-03-21T02:09:57.024Z,101448.00
2023-03-21T02:12:23.962Z,101454.00
2023-03-21T02:14:53.076Z,101446.00
2023-03-21T02:17:36.685Z,101449.00
2023-03-21T02:20:46.581Z,101437.00
2023-03-21T02:23:40.563Z,101433.00
2023-03-21T02:26:13.007Z,101436.00
2023-03-21T02:29:15.425Z,101441.00
2023-03-21T02:32:09.284Z,101431.00
2023-03-21T02:35:17.238Z,101432.00
2023-03-21T02:37:58.456Z,101436.00
2023-03-21T02:40:44.011Z,101431.00
2023-03-21T02:43:23.395Z,101432.00
2023-03-21T02:46:01.093Z,101421.00
2023-03-21T02:49:16.912Z,101428.00
2023-03-21T02:51:46.306Z,101415.00
2023-03-21T02:54:32.324Z,101418.00
2023-03-21T02:57:04.530Z,101419.00
2023-03-21T02:59:33.922Z,101422.00
2023-03-21T03:02:00.801Z,101413.00
2023-03-21T03:04:28.532Z,101413.00
2023-03-21T03:06:58.257Z,101408.00
2023-03-21T03:09:45.269Z,101400.00
2023-03-21T03:12:20.893Z,101403.00
2023-03-21T03:15:03.357Z,101405.00
2023-03-21T03:18:01.604Z,101404.00
2023-03-21T03:20:36.816Z,101399.00
2023-03-21T03:23:09.614Z,101400.00
2023-03-21T03:25:44.021Z,101403.00
2023-03-21T03:28:14.528Z,101394.00
2023-03-21T03:30:51.289Z,101394.00
2023-03-21T03:33:29.680Z,101394.00
2023-03-21T03:36:04.855Z,101388.00
2023-03-21T03:38:33.674Z,101390.00
2023-03-21T03:41:06.043Z,101387.00
2023-03-21T03:43:39.852Z,101384.00
2023-03-21T03:46:13.739Z,101385.00
2023-03-21T03:49:04.854Z,101384.00
2023-03-21T03:51:53.001Z,101389.00
2023-03-21T03:54:25.567Z,101375.00
2023-03-21T03:56:52.853Z,101368.00
2023-03-21T03:59:22.034Z,101366.00
2023-03-21T04:01:49.282Z,101356.00
2023-03-21T04:04:17.241Z,101362.00
2023-03-21T04:06:51.420Z,101363.00
2023-03-21T04:09:22.115Z,101349.00
2023-03-21T04:11:53.435Z,101361.00
2023-03-21T04:14:20.504Z,101349.00
2023-03-21T04:16:47.338Z,101356.00
2023-03-21T04:19:15.924Z,101349.00
2023-03-21T04:21:42.884Z,101344.00
2023-03-21T04:24:09.501Z,101339.00
2023-03-21T04:26:36.395Z,101337.00
2023-03-21T04:29:03.649Z,101325.00
2023-03-21T04:31:31.538Z,101325.00
2023-03-21T04:33:59.641Z,101335.00
2023-03-21T04:36:30.792Z,101332.00
2023-03-21T04:39:01.556Z,101337.00
2023-03-21T04:41:28.929Z,101326.00
2023-03-21T04:43:56.534Z,101313.00
2023-03-21T04:46:24.208Z,101327.00
2023-03-21T04:48:50.777Z,101321.00
2023-03-21T04:51:17.331Z,101311.00
2023-03-21T04:53:48.240Z,101314.00
2023-03-21T04:56:15.884Z,101313.00
2023-03-21T04:58:42.595Z,101314.00
2023-03-21T05:01:09.503Z,101321.00
2023-03-21T05:03:40.043Z,101311.00
2023-03-21T05:06:10.490Z,101323.00
2023-03-21T05:08:37.123Z,101314.00
2023-03-21T05:11:04.528Z,101310.00
2023-03-21T05:13:31.106Z,101317.00
2023-03-21T05:15:57.724Z,101319.00
2023-03-21T05:18:25.051Z,101310.00
2023-03-21T05:20:54.570Z,101315.00
2023-03-21T05:23:22.541Z,101314.00
2023-03-21T05:25:49.692Z,101313.00
2023-03-21T05:28:19.631Z,101312.00
2023-03-21T05:30:46.793Z,101304.00
2023-03-21T05:33:13.867Z,101310.00
2023-03-21T05:35:40.674Z,101304.00
2023-03-21T05:38:07.732Z,101306.00
2023-03-21T05:40:34.313Z,101302.00
2023-03-21T05:43:01.090Z,101298.00
2023-03-21T05:45:27.712Z,101290.00
2023-03-21T05:47:54.332Z,101296.00
2023-03-21T05:50:21.090Z,101298.00
2023-03-21T05:52:47.696Z,101297.00
2023-03-21T05:55:14.414Z,101295.00
2023-03-21T05:57:41.114Z,101294.00
2023-03-21T06:00:09.209Z,101297.00
2023-03-21T06:02:36.074Z,101299.00
2023-03-21T06:05:02.715Z,101305.00
2023-03-21T06:07:29.328Z,101307.00
2023-03-21T06:09:55.948Z,101306.00
2023-03-21T06:12:22.685Z,101304.00
2023-03-21T06:14:49.222Z,101300.00
2023-03-21T06:17:16.063Z,101295.00
2023-03-21T06:19:42.673Z,101298.00
2023-03-21T06:22:09.318Z,101297.00
2023-03-21T06:24:36.094Z,101299.00
2023-03-21T06:27:04.064Z,101290.00
2023-03-21T06:29:31.240Z,101296.00
2023-03-21T06:31:57.983Z,101281.00
2023-03-21T06:34:24.597Z,101291.00
2023-03-21T06:36:52.207Z,101295.00
2023-03-21T06:39:18.940Z,101294.00
2023-03-21T06:41:45.793Z,101297.00
2023-03-21T06:44:12.423Z,101295.00
2023-03-21T06:46:39.048Z,101291.00
2023-03-21T06:49:05.918Z,101294.00
2023-03-21T06:51:35.299Z,101291.00
2023-03-21T06:54:01.954Z,101288.00
2023-03-21T06:56:28.578Z,101281.00
2023-03-21T06:58:55.205Z,101271.00
2023-03-21T07:01:22.197Z,101265.00
2023-03-21T07:03:48.847Z,101264.00
2023-03-21T07:06:16.571Z,101262.00
2023-03-21T07:08:43.263Z,101263.00
2023-03-21T07:11:09.952Z,101267.00
2023-03-21T07:13:36.874Z,101271.00
2023-03-21T07:16:03.736Z,101265.00
2023-03-21T07:18:31.099Z,101258.00
2023-03-21T07:20:58.011Z,101270.00
2023-03-21T07:23:25.929Z,101270.00
2023-03-21T07:25:53.406Z,101264.00
2023-03-21T07:28:20.628Z,101275.00
2023-03-21T07:30:55.748Z,101277.00
2023-03-21T07:33:23.341Z,101260.00
2023-03-21T07:35:51.338Z,101262.00
2023-03-21T07:38:19.132Z,101259.00
2023-03-21T07:40:47.007Z,101256.00
2023-03-21T07:43:13.927Z,101272.00
2023-03-21T07:45:40.970Z,101265.00
2023-03-21T07:48:07.696Z,101261.00
2023-03-21T07:50:34.870Z,101240.00
2023-03-21T07:53:01.810Z,101249.00
2023-03-21T07:55:28.615Z,101239.00
2023-03-21T07:57:55.186Z,101229.00
2023-03-21T08:00:24.816Z,101236.00
2023-03-21T08:02:58.722Z,101240.00
2023-03-21T08:05:33.225Z,101251.00
2023-03-21T08:08:00.333Z,101233.00
2023-03-21T08:10:27.157Z,101231.00
2023-03-21T08:12:54.234Z,101227.00
2023-03-21T08:15:21.659Z,101228.00
2023-03-21T08:17:48.256Z,101234.00
2023-03-21T08:20:18.566Z,101247.00
2023-03-21T08:22:45.128Z,101251.00
2023-03-21T08:25:13.995Z,101236.00
2023-03-21T08:27:42.495Z,101221.00
2023-03-21T08:30:12.363Z,101217.00
2023-03-21T08:32:40.042Z,101212.00
2023-03-21T08:35:11.564Z,101210.00
2023-03-21T08:37:39.303Z,101228.00
2023-03-21T08:40:09.199Z,101236.00
2023-03-21T08:42:35.861Z,101229.00
2023-03-21T08:45:02.490Z,101238.00
2023-03-21T08:47:29.086Z,101256.00
2023-03-21T08:49:59.249Z,101241.00
2023-03-21T08:52:27.249Z,101240.00
2023-03-21T08:54:56.908Z,101241.00
2023-03-21T08:57:23.734Z,101247.00
2023-03-21T08:59:50.361Z,101242.00
2023-03-21T09:02:17.875Z,101250.00
2023-03-21T09:04:44.980Z,101236.00
2023-03-21T09:07:18.137Z,101243.00
2023-03-21T09:09:47.721Z,101249.00
2023-03-21T09:12:17.477Z,101263.00
2023-03-21T09:14:44.080Z,101265.00
2023-03-21T09:17:10.632Z,101274.00
2023-03-21T09:19:38.943Z,101272.00
2023-03-21T09:22:05.766Z,101284.00
2023-03-21T09:24:32.384Z,101273.00
2023-03-21T09:26:59.598Z,101291.00
2023-03-21T09:29:26.554Z,101284.00
2023-03-21T09:31:54.379Z,101280.00
2023-03-21T09:34:21.294Z,101270.00
2023-03-21T09:36:48.872Z,101257.00
2023-03-21T09:39:16.808Z,101282.00
2023-03-21T09:42:04.801Z,101250.00
2023-03-21T09:44:53.691Z,101255.00
2023-03-21T09:47:25.213Z,101256.00
2023-03-21T09:50:13.649Z,101257.00
2023-03-21T09:52:51.913Z,101256.00
2023-03-21T09:55:22.801Z,101246.00
2023-03-21T09:58:00.714Z,101250.00
2023-03-21T10:00:35.221Z,101251.00
2023-03-21T10:03:07.443Z,101254.00
2023-03-21T10:05:40.505Z,101241.00
2023-03-21T10:08:25.383Z,101255.00
2023-03-21T10:10:55.890Z,101247.00
2023-03-21T10:13:26.508Z,101249.00
2023-03-21T10:15:58.238Z,101251.00
2023-03-21T10:18:29.124Z,101247.00
2023-03-21T10:20:56.485Z,101254.00
2023-03-21T10:23:28.870Z,101265.00
2023-03-21T10:25:59.930Z,101258.00
2023-03-21T10:28:49.969Z,101247.00
2023-03-21T10:31:26.176Z,101260.00
2023-03-21T10:33:56.086Z,101240.00
2023-03-21T10:36:27.929Z,101247.00
2023-03-21T10:39:04.724Z,101251.00
2023-03-21T10:41:32.744Z,101235.00
2023-03-21T10:44:17.382Z,101233.00
2023-03-21T10:46:59.004Z,101237.00
2023-03-21T10:49:26.802Z,101247.00
2023-03-21T10:51:57.895Z,101252.00
2023-03-21T10:54:29.767Z,101236.00
2023-03-21T10:57:14.286Z,101247.00
2023-03-21T10:59:54.946Z,101247.00
2023-03-21T11:02:33.271Z,101244.00
2023-03-21T11:05:06.221Z,101244.00
2023-03-21T11:07:32.840Z,101235.00
2023-03-21T11:10:01.202Z,101235.00
2023-03-21T11:12:56.058Z,101233.00
2023-03-21T11:15:38.278Z,101237.00
2023-03-21T11:18:27.288Z,101244.00
2023-03-21T11:20:57.142Z,101244.00
2023-03-21T11:23:30.478Z,101250.00
2023-03-21T11:26:00.538Z,101243.00
2023-03-21T11:28:35.813Z,101250.00
2023-03-21T11:31:04.174Z,101248.00
2023-03-21T11:33:56.973Z,101253.00
2023-03-21T11:36:26.205Z,101246.00
2023-03-21T11:38:57.519Z,101247.00
2023-03-21T11:41:28.459Z,101248.00
2023-03-21T11:43:55.427Z,101245.00
2023-03-21T11:46:27.449Z,101243.00
2023-03-21T11:48:55.953Z,101246.00
2023-03-21T11:52:07.137Z,101247.00
2023-03-21T11:55:31.541Z,101233.00
2023-03-21T11:58:05.254Z,101223.00
2023-03-21T12:01:03.617Z,101222.00
2023-03-21T12:03:55.653Z,101217.00
2023-03-21T12:06:32.937Z,101222.00
2023-03-21T12:09:25.242Z,101223.00
2023-03-21T12:12:01.121Z,101221.00
2023-03-21T12:14:53.986Z,101227.00
2023-03-21T12:17:38.866Z,101215.00
2023-03-21T12:20:23.347Z,101209.00
2023-03-21T12:23:05.321Z,101210.00
2023-03-21T12:25:40.328Z,101216.00
2023-03-21T12:28:38.645Z,101218.00
2023-03-21T12:31:17.313Z,101213.00
2023-03-21T12:34:20.936Z,101207.00
2023-03-21T12:37:29.408Z,101203.00
2023-03-21T12:40:09.990Z,101197.00
2023-03-21T12:43:10.433Z,101183.00
2023-03-21T12:45:47.043Z,101173.00
2023-03-21T12:48:41.779Z,101172.00
2023-03-21T12:51:13.524Z,101159.00
2023-03-21T12:53:55.159Z,101171.00
2023-03-21T12:56:33.831Z,101168.00
2023-03-21T12:59:00.412Z,101165.00
2023-03-21T13:01:29.033Z,101164.00
2023-03-21T13:04:07.909Z,101153.00
2023-03-21T13:06:36.651Z,101156.00
2023-03-21T13:09:13.408Z,101162.00
2023-03-21T13:11:40.449Z,101142.00
2023-03-21T13:14:14.325Z,101147.00
2023-03-21T13:16:49.718Z,101143.00
2023-03-21T13:19:41.260Z,101141.00
2023-03-21T13:22:15.334Z,101140.00
2023-03-21T13:24:48.570Z,101128.00
2023-03-21T13:27:22.276Z,101126.00
2023-03-21T13:30:08.796Z,101121.00
2023-03-21T13:32:40.627Z,101123.00
2023-03-21T13:35:27.547Z,101125.00
2023-03-21T13:37:58.978Z,101129.00
2023-03-21T13:40:34.721Z,101126.00
2023-03-21T13:43:03.581Z,101129.00
2023-03-21T13:45:45.486Z,101129.00
2023-03-21T13:48:49.468Z,101122.00
2023-03-21T13:51:45.331Z,101125.00
2023-03-21T13:54:14.917Z,101131.00
2023-03-21T13:56:44.447Z,101132.00
2023-03-21T13:59:13.257Z,101127.00
2023-03-21T14:01:42.296Z,101131.00
2023-03-21T14:04:20.156Z,101127.00
2023-03-21T14:07:01.860Z,101115.00
2023-03-21T14:09:36.408Z,101121.00
2023-03-21T14:12:08.037Z,101118.00
2023-03-21T14:14:42.624Z,101124.00
2023-03-21T14:17:22.152Z,101116.00
2023-03-21T14:19:56.723Z,101118.00
2023-03-21T14:22:23.760Z,101122.00
2023-03-21T14:25:01.191Z,101108.00
2023-03-21T14:27:37.943Z,101102.00
2023-03-21T14:30:05.439Z,101105.00
2023-03-21T14:32:32.174Z,101104.00
2023-03-21T14:35:01.450Z,101100.00
2023-03-21T14:37:32.382Z,101094.00
2023-03-21T14:40:27.302Z,101090.00
2023-03-21T14:43:05.936Z,101092.00
2023-03-21T14:45:35.349Z,101095.00
2023-03-21T14:48:06.848Z,101094.00
2023-03-21T14:50:42.180Z,101096.00
2023-03-21T14:53:16.225Z,101106.00
2023-03-21T14:55:50.902Z,101090.00
2023-03-21T14:58:19.384Z,101092.00
2023-03-21T15:00:49.863Z,101091.00
2023-03-21T15:03:19.044Z,101092.00
2023-03-21T15:05:46.483Z,101104.00
2023-03-21T15:08:21.828Z,101091.00
2023-03-21T15:11:15.432Z,101085.00
2023-03-21T15:13:54.826Z,101091.00
2023-03-21T15:16:22.341Z,101099.00
2023-03-21T15:18:50.267Z,101094.00
2023-03-21T15:21:35.048Z,101112.00
2023-03-21T15:24:13.474Z,101104.00
2023-03-21T15:26:43.744Z,101094.00
2023-03-21T15:29:10.722Z,101092.00
2023-03-21T15:31:40.520Z,101090.00
2023-03-21T15:34:07.523Z,101088.00
2023-03-21T15:36:40.046Z,101095.00
2023-03-21T15:39:12.671Z,101093.00
2023-03-21T15:41:39.350Z,101094.00
2023-03-21T15:44:13.690Z,101102.00
2023-03-21T15:46:50.692Z,101099.00
2023-03-21T15:49:25.235Z,101095.00
2023-03-21T15:51:57.305Z,101094.00
2023-03-21T15:54:43.495Z,101102.00
2023-03-21T15:57:25.956Z,101099.00
2023-03-21T16:00:12.029Z,101111.00
2023-03-21T16:02:41.531Z,101103.00
2023-03-21T16:05:28.547Z,101102.00
2023-03-21T16:08:04.343Z,101096.00
2023-03-21T16:10:38.525Z,101112.00
2023-03-21T16:13:06.688Z,101116.00
2023-03-21T16:15:33.490Z,101114.00
2023-03-21T16:18:02.279Z,101110.00
2023-03-21T16:20:34.247Z,101116.00
2023-03-21T16:23:01.560Z,101109.00
2023-03-21T16:25:30.581Z,101116.00
2023-03-21T16:27:57.451Z,101109.00
2023-03-21T16:30:24.403Z,101114.00
2023-03-21T16:32:51.585Z,101108.00
2023-03-21T16:35:18.928Z,101111.00
2023-03-21T16:37:48.138Z,101115.00
2023-03-21T16:40:26.294Z,101119.00
2023-03-21T16:42:52.959Z,101119.00
2023-03-21T16:45:19.674Z,101119.00
2023-03-21T16:47:47.458Z,101103.00
2023-03-21T16:50:30.031Z,101101.00
2023-03-21T16:52:57.600Z,101090.00
2023-03-21T16:55:24.662Z,101095.00
2023-03-21T16:57:53.005Z,101094.00
2023-03-21T17:00:26.181Z,101088.00
2023-03-21T17:02:55.117Z,101093.00
2023-03-21T17:05:27.492Z,101085.00
2023-03-21T17:07:54.970Z,101087.00
2023-03-21T17:10:25.804Z,101086.00
2023-03-21T17:12:52.587Z,101084.00
2023-03-21T17:15:20.381Z,101087.00
2023-03-21T17:17:49.969Z,101076.00
2023-03-21T17:20:21.501Z,101092.00
2023-03-21T17:22:48.816Z,101090.00
2023-03-21T17:25:16.745Z,101091.00
2023-03-21T17:27:44.018Z,101088.00
2023-03-21T17:30:28.727Z,101093.00
2023-03-21T17:32:55.455Z,101090.00
2023-03-21T17:35:23.721Z,101093.00
2023-03-21T17:37:51.261Z,101087.00
2023-03-21T17:40:24.963Z,101088.00
2023-03-21T17:42:53.229Z,101091.00
2023-03-21T17:45:20.485Z,101095.00
2023-03-21T17:47:47.366Z,101089.00
2023-03-21T17:50:25.970Z,101085.00
2023-03-21T17:52:52.753Z,101085.00
2023-03-21T17:55:21.228Z,101086.00
2023-03-21T17:57:49.193Z,101079.00
2023-03-21T18:00:22.940Z,101080.00
2023-03-21T18:02:50.479Z,101077.00
2023-03-21T18:05:17.979Z,101076.00
2023-03-21T18:08:08.830Z,101082.00
2023-03-21T18:10:32.786Z,101073.00
2023-03-21T18:13:00.245Z,101074.00
2023-03-21T18:15:30.517Z,101078.00
2023-03-21T18:17:57.588Z,101073.00
2023-03-21T18:20:44.685Z,101067.00
2023-03-21T18:23:14.309Z,101069.00
2023-03-21T18:25:41.852Z,101068.00
2023-03-21T18:28:11.790Z,101076.00
2023-03-21T18:30:56.816Z,101072.00
2023-03-21T18:33:27.409Z,101080.00
2023-03-21T18:35:58.967Z,101073.00
2023-03-21T18:38:27.488Z,101077.00
2023-03-21T18:40:54.620Z,101085.00
2023-03-21T18:46:08.718Z,101086.00
2023-03-21T18:48:35.851Z,101085.00
2023-03-21T18:51:03.088Z,101075.00
2023-03-21T18:53:29.957Z,101076.00
2023-03-21T18:55:57.487Z,101079.00
2023-03-21T18:58:24.866Z,101081.00
2023-03-21T19:00:53.462Z,101083.00
2023-03-21T19:03:35.400Z,101073.00
2023-03-21T19:06:04.780Z,101077.00
2023-03-21T19:08:34.027Z,101090.00
2023-03-21T19:11:05.593Z,101078.00
2023-03-21T19:13:33.258Z,101086.00
2023-03-21T19:16:02.351Z,101085.00
2023-03-21T19:18:50.087Z,101079.00
2023-03-21T19:21:17.127Z,101069.00
2023-03-21T19:24:20.836Z,101080.00
2023-03-21T19:26:30.509Z,101082.00
2023-03-21T19:28:57.442Z,101080.00
2023-03-21T19:31:24.452Z,101085.00
2023-03-21T19:33:51.500Z,101083.00
2023-03-21T19:36:22.453Z,101078.00
2023-03-21T19:38:49.638Z,101085.00
2023-03-21T19:41:16.518Z,101083.00
2023-03-21T19:43:53.259Z,101086.00
2023-03-21T19:46:23.196Z,101088.00
2023-03-21T19:48:50.324Z,101085.00
2023-03-21T19:51:28.804Z,101081.00
2023-03-21T19:53:57.124Z,101083.00
2023-03-21T19:56:27.135Z,101076.00
2023-03-21T19:58:54.960Z,101076.00
2023-03-21T20:01:22.019Z,101074.00
2023-03-21T20:03:48.674Z,101063.00
2023-03-21T20:06:16.305Z,101063.00
2023-03-21T20:09:23.961Z,101059.00
2023-03-21T20:11:29.589Z,101066.00
2023-03-21T20:13:56.402Z,101056.00
2023-03-21T20:16:23.143Z,101061.00
2023-03-21T20:18:49.990Z,101053.00
2023-03-21T20:21:18.442Z,101047.00
2023-03-21T20:23:50.958Z,101039.00
2023-03-21T20:26:18.429Z,101048.00
2023-03-21T20:29:00.201Z,101043.00
2023-03-21T20:31:35.433Z,101049.00
2023-03-21T20:34:02.486Z,101043.00
2023-03-21T20:36:39.723Z,101044.00
2023-03-21T20:39:07.394Z,101052.00
2023-03-21T20:41:34.039Z,101048.00
2023-03-21T20:46:50.322Z,101046.00
2023-03-21T20:49:17.081Z,101051.00
2023-03-21T20:54:30.567Z,101046.00
2023-03-21T20:56:57.316Z,101044.00
2023-03-21T20:59:27.535Z,101047.00
2023-03-21T21:01:57.313Z,101046.00
2023-03-21T21:04:42.750Z,101042.00
2023-03-21T21:07:15.953Z,101043.00
2023-03-21T21:09:44.755Z,101037.00
2023-03-21T21:12:12.342Z,101034.00
2023-03-21T21:14:39.285Z,101026.00
2023-03-21T21:17:23.825Z,101032.00
2023-03-21T21:19:53.046Z,101031.00
2023-03-21T21:22:19.652Z,101022.00
2023-03-21T21:24:46.276Z,101017.00
2023-03-21T21:27:13.860Z,101016.00
2023-03-21T21:29:43.255Z,101013.00
2023-03-21T21:32:11.204Z,101005.00
2023-03-21T21:34:37.941Z,101012.00
2023-03-21T21:37:05.127Z,101005.00
2023-03-21T21:39:37.830Z,101011.00
2023-03-21T21:42:05.203Z,101001.00
2023-03-21T21:44:31.821Z,100990.00
2023-03-21T21:46:58.752Z,100992.00
2023-03-21T21:49:25.515Z,100991.00
2023-03-21T21:51:52.154Z,100997.00
2023-03-21T21:54:18.800Z,100985.00
2023-03-21T21:56:48.495Z,100984.00
2023-03-21T21:59:18.722Z,100983.00
2023-03-21T22:01:48.495Z,100978.00
2023-03-21T22:04:15.505Z,100976.00
2023-03-21T22:06:43.275Z,100970.00
2023-03-21T22:09:10.707Z,100964.00
2023-03-21T22:11:37.302Z,100962.00
2023-03-21T22:14:03.909Z,100956.00
2023-03-21T22:16:30.721Z,100966.00
2023-03-21T22:18:57.310Z,100966.00
2023-03-21T22:21:24.136Z,100959.00
2023-03-21T22:23:50.932Z,100963.00
2023-03-21T22:26:17.695Z,100960.00
2023-03-21T22:28:44.338Z,100961.00
2023-03-21T22:31:14.258Z,100963.00
2023-03-21T22:33:40.949Z,100951.00
2023-03-21T22:36:08.177Z,100950.00
2023-03-21T22:38:37.024Z,100945.00
2023-03-21T22:41:05.735Z,100952.00
2023-03-21T22:43:34.327Z,100945.00
2023-03-21T22:46:02.903Z,100938.00
2023-03-21T22:48:30.928Z,100938.00
2023-03-21T22:50:59.169Z,100932.00
2023-03-21T22:53:25.950Z,100925.00
2023-03-21T22:55:52.864Z,100929.00
2023-03-21T22:58:19.517Z,100926.00
2023-03-21T23:00:47.285Z,100937.00
2023-03-21T23:03:14.663Z,100929.00
2023-03-21T23:05:41.725Z,100918.00
2023-03-21T23:08:08.669Z,100922.00
2023-03-21T23:10:38.189Z,100917.00
2023-03-21T23:13:05.139Z,100915.00
2023-03-21T23:15:31.858Z,100906.00
2023-03-21T23:17:58.686Z,100901.00
2023-03-21T23:20:25.629Z,100898.00
2023-03-21T23:22:52.278Z,100896.00
2023-03-21T23:25:20.687Z,100888.00
2023-03-21T23:27:47.976Z,100879.00
2023-03-21T23:30:14.741Z,100870.00
2023-03-21T23:32:42.162Z,100866.00
2023-03-21T23:35:09.657Z,100865.00
2023-03-21T23:37:36.524Z,100860.00
2023-03-21T23:40:06.374Z,100857.00
2023-03-21T23:42:34.308Z,100850.00
2023-03-21T23:45:01.085Z,100851.00
2023-03-21T23:47:28.210Z,100852.00
2023-03-21T23:49:54.997Z,100846.00
2023-03-21T23:52:22.048Z,100838.00
2023-03-21T23:54:48.723Z,100838.00
2023-03-21T23:57:16.806Z,100830.00
2023-03-21T23:59:43.599Z,100825.00
